»·PEaware :: N870CP KTUS-KPRC

N870CP :: KTUS-KPRC

FLIGHT INFORMATION

Flight Status: Arrived
Operator: Privately registered:
United States
More flights under this callsign
Pilot: Anonymous 43649 (43649)
Aircraft: CESSNA 172 SKYHAWK
(C172)
More flights by this aircraft type
Origin: KTUS Tucson Intl
United States
Destination: KPRC Love
United States
More flights between these airports :: More routes between these airports
Route:
File this flight plan on PilotEdge
Remarks:
Altitude:
(Current/Filed)
4,500ft
Speed:
(Current/Filed)
0kts
Departed: 23-Sep-23 02:01 PM
Arrived: 23-Sep-23 03:42 PM
Distance/Time
Traveled:
169nm/1:41
Distance/Time
To Go:
Arrived

Flight Plot

Page will automatically refresh every two minutes.

Flight plan parsing failed; only flown route is shown


Map Options




Map Legend


Flown Route
Filed Route
Departure Airport
Arrival Airport
Navaid (VOR, NDB)
Fix

Horizontal Profiles

Position Reports

Time Latitude Longitude Heading Altitude Ground
Speed
23-Sep-23 13:46 32.123031 -110.943372 315 2581ft 0kts
23-Sep-23 13:47 32.123031 -110.943372 315 2581ft 0kts
23-Sep-23 13:48 32.123031 -110.943372 315 2581ft 0kts
23-Sep-23 13:49 32.123031 -110.943372 315 2581ft 0kts
23-Sep-23 13:50 32.123031 -110.943372 315 2581ft 0kts
23-Sep-23 13:51 32.122532 -110.943962 208 2582ft 0kts
23-Sep-23 13:52 32.120833 -110.942487 134 2588ft 9kts
23-Sep-23 13:53 32.118175 -110.939454 135 2593ft 15kts
23-Sep-23 13:54 32.115058 -110.935666 130 2606ft 15kts
23-Sep-23 13:55 32.112096 -110.932215 135 2616ft 16kts
23-Sep-23 13:56 32.108552 -110.928100 132 2626ft 17kts
23-Sep-23 13:57 32.105381 -110.924333 134 2639ft 16kts
23-Sep-23 13:58 32.103024 -110.922537 221 2644ft 0kts
23-Sep-23 13:59 32.103024 -110.922537 221 2644ft 0kts
23-Sep-23 14:00 32.109127 -110.930405 323 2799ft 72kts
23-Sep-23 14:01 32.123159 -110.942675 322 3478ft 50kts
23-Sep-23 14:02 32.139312 -110.959761 313 3831ft 95kts
23-Sep-23 14:03 32.160293 -110.985218 311 4095ft 118kts
23-Sep-23 14:04 32.181947 -111.012007 317 4494ft 113kts
23-Sep-23 14:05 32.207509 -111.037658 318 4508ft 123kts
23-Sep-23 14:06 32.235546 -111.061810 325 4509ft 126kts
23-Sep-23 14:07 32.264912 -111.084006 325 4505ft 124kts
23-Sep-23 14:08 32.294632 -111.104687 336 4505ft 124kts
23-Sep-23 14:09 32.326872 -111.120754 335 4505ft 125kts
23-Sep-23 14:10 32.358592 -111.137721 311 4501ft 122kts
23-Sep-23 14:11 32.378784 -111.170325 304 4504ft 124kts
23-Sep-23 14:12 32.396925 -111.199814 304 4491ft 98kts
23-Sep-23 14:13 32.413218 -111.226343 304 4497ft 104kts
23-Sep-23 14:14 32.430429 -111.254572 304 4509ft 108kts
23-Sep-23 14:15 32.448290 -111.284173 304 4508ft 110kts
23-Sep-23 14:16 32.461981 -111.316312 297 4507ft 109kts
23-Sep-23 14:17 32.485859 -111.338376 322 4504ft 109kts
23-Sep-23 14:18 32.510766 -111.359486 322 4504ft 110kts
23-Sep-23 14:19 32.536161 -111.380260 331 4503ft 110kts
23-Sep-23 14:20 32.564301 -111.394469 326 4502ft 108kts
23-Sep-23 14:21 32.583373 -111.421771 301 4503ft 109kts
23-Sep-23 14:22 32.600155 -111.452316 301 4504ft 110kts
23-Sep-23 14:23 32.613764 -111.484687 293 4506ft 110kts
23-Sep-23 14:24 32.626368 -111.517794 293 4504ft 110kts
23-Sep-23 14:25 32.640414 -111.550155 303 4507ft 111kts
23-Sep-23 14:26 32.659557 -111.578663 312 4504ft 111kts
23-Sep-23 14:27 32.681203 -111.604812 314 4503ft 110kts
23-Sep-23 14:28 32.701507 -111.631105 302 4502ft 108kts
23-Sep-23 14:29 32.718522 -111.661279 302 4506ft 112kts
23-Sep-23 14:30 32.735600 -111.691829 302 4503ft 109kts
23-Sep-23 14:31 32.752463 -111.722184 301 4502ft 110kts
23-Sep-23 14:32 32.770065 -111.751951 313 4501ft 110kts
23-Sep-23 14:33 32.793462 -111.775496 313 4502ft 110kts
23-Sep-23 14:34 32.815335 -111.801391 313 4500ft 110kts
23-Sep-23 14:35 32.835971 -111.827612 296 4495ft 107kts
23-Sep-23 14:36 32.852418 -111.857558 307 4497ft 109kts
23-Sep-23 14:37 32.869844 -111.886756 317 4495ft 111kts
23-Sep-23 14:38 32.890773 -111.912267 350 4492ft 110kts
23-Sep-23 14:40 32.920994 -111.920076 346 4499ft 112kts
23-Sep-23 14:41 32.951657 -111.927525 346 4499ft 113kts
23-Sep-23 14:42 32.982490 -111.935111 345 4499ft 112kts
23-Sep-23 14:43 33.012613 -111.945784 340 4504ft 114kts
23-Sep-23 14:44 33.043106 -111.955322 343 4501ft 112kts
23-Sep-23 14:45 33.073882 -111.962980 346 4500ft 112kts
23-Sep-23 14:46 33.104524 -111.970357 346 4498ft 112kts
23-Sep-23 14:47 33.135030 -111.977863 346 4499ft 112kts
23-Sep-23 14:48 33.165678 -111.985506 345 4500ft 112kts
23-Sep-23 14:49 33.196310 -111.993283 345 4499ft 112kts
23-Sep-23 14:50 33.226958 -112.001185 345 4501ft 113kts
23-Sep-23 14:51 33.258190 -112.002594 6 4496ft 113kts
23-Sep-23 14:52 33.289505 -111.997047 6 4500ft 114kts
23-Sep-23 14:53 33.320697 -111.992470 9 4495ft 114kts
23-Sep-23 14:54 33.351443 -111.988618 354 4493ft 112kts
23-Sep-23 14:55 33.382811 -111.988126 356 4494ft 113kts
23-Sep-23 14:56 33.414224 -111.988992 356 4495ft 113kts
23-Sep-23 14:57 33.445779 -111.989988 356 4495ft 113kts
23-Sep-23 14:58 33.477473 -111.991108 356 4495ft 113kts
23-Sep-23 14:59 33.509550 -111.998405 345 4510ft 125kts
23-Sep-23 15:00 33.543791 -112.010008 340 4508ft 128kts
23-Sep-23 15:01 33.577803 -112.022591 341 4509ft 128kts
23-Sep-23 15:02 33.611750 -112.034935 341 4507ft 128kts
23-Sep-23 15:03 33.646034 -112.047410 341 4507ft 128kts
23-Sep-23 15:04 33.679954 -112.059765 341 4507ft 128kts
23-Sep-23 15:04 33.708356 -112.070116 341 4507ft 128kts
23-Sep-23 15:06 33.748155 -112.084634 341 4507ft 128kts
23-Sep-23 15:07 33.782359 -112.097121 341 4507ft 128kts
23-Sep-23 15:08 33.815415 -112.109199 341 4766ft 119kts
23-Sep-23 15:08 33.839374 -112.117986 340 5405ft 93kts
23-Sep-23 15:09 33.865719 -112.127642 340 5928ft 103kts
23-Sep-23 15:11 33.898321 -112.139570 340 6515ft 104kts
23-Sep-23 15:12 33.925363 -112.149487 340 7111ft 96kts
23-Sep-23 15:12 33.945810 -112.157002 339 7674ft 87kts
23-Sep-23 15:13 33.967483 -112.165000 338 8334ft 75kts
23-Sep-23 15:14 33.991473 -112.173750 340 8510ft 112kts
23-Sep-23 15:16 34.028896 -112.187445 341 8510ft 123kts
23-Sep-23 15:17 34.061852 -112.199552 340 8507ft 124kts
23-Sep-23 15:17 34.089125 -112.209590 341 8504ft 122kts
23-Sep-23 15:18 34.121729 -112.221598 341 8503ft 121kts
23-Sep-23 15:19 34.154433 -112.233643 341 8505ft 124kts
23-Sep-23 15:20 34.187094 -112.245688 341 8501ft 122kts
23-Sep-23 15:21 34.219481 -112.257644 341 8503ft 123kts
23-Sep-23 15:22 34.252608 -112.269872 341 8505ft 124kts
23-Sep-23 15:23 34.285352 -112.281980 341 8505ft 123kts
23-Sep-23 15:24 34.319245 -112.277470 7 8465ft 128kts
23-Sep-23 15:25 34.352532 -112.270491 7 7950ft 114kts
23-Sep-23 15:26 34.383089 -112.264164 7 7590ft 104kts
23-Sep-23 15:27 34.415191 -112.259523 354 7608ft 122kts
23-Sep-23 15:28 34.449533 -112.262242 354 7608ft 125kts
23-Sep-23 15:29 34.484589 -112.265181 353 7607ft 126kts
23-Sep-23 15:30 34.516523 -112.267885 354 7565ft 92kts
23-Sep-23 15:31 34.540747 -112.279365 337 6857ft 90kts
23-Sep-23 15:32 34.564201 -112.293135 320 6389ft 93kts
23-Sep-23 15:33 34.579192 -112.317169 295 6262ft 89kts
23-Sep-23 15:34 34.588499 -112.345036 281 6409ft 91kts
23-Sep-23 15:35 34.593062 -112.374747 286 6614ft 89kts
23-Sep-23 15:36 34.605365 -112.401481 299 6674ft 89kts
23-Sep-23 15:37 34.625223 -112.417981 0 5990ft 93kts
23-Sep-23 15:38 34.647589 -112.408279 30 5845ft 82kts
23-Sep-23 15:39 34.667838 -112.396020 314 5579ft 79kts
23-Sep-23 15:40 34.659281 -112.414472 220 4978ft 47kts
23-Sep-23 15:41 34.652346 -112.421743 219 5014ft 24kts
23-Sep-23 15:42 34.650959 -112.422334 131 5020ft 0kts
23-Sep-23 15:43 34.651818 -112.420609 42 5013ft 22kts

Navigation Log

Ident Type
Flight plan parsing failed, navigation log unavailable